createdAt,value
2023-02-12T00:00:27.314Z,77.18
2023-02-12T00:03:16.893Z,77.09
2023-02-12T00:05:45.832Z,77.18
2023-02-12T00:08:15.724Z,77.11
2023-02-12T00:10:45.811Z,77.12
2023-02-12T00:13:15.514Z,77.10
2023-02-12T00:15:45.074Z,77.11
2023-02-12T00:18:13.876Z,77.13
2023-02-12T00:20:43.789Z,77.20
2023-02-12T00:23:13.485Z,77.09
2023-02-12T00:25:42.943Z,77.02
2023-02-12T00:28:11.993Z,77.08
2023-02-12T00:30:44.000Z,77.03
2023-02-12T00:33:16.385Z,77.06
2023-02-12T00:35:55.165Z,77.06
2023-02-12T00:38:27.320Z,77.04
2023-02-12T00:40:56.393Z,77.02
2023-02-12T00:43:25.475Z,76.86
2023-02-12T00:45:55.450Z,77.00
2023-02-12T00:48:25.095Z,76.91
2023-02-12T00:50:53.801Z,77.04
2023-02-12T00:53:23.035Z,76.86
2023-02-12T00:55:53.183Z,77.05
2023-02-12T00:58:23.599Z,76.94
2023-02-12T01:00:54.385Z,76.95
2023-02-12T01:03:25.652Z,76.87
2023-02-12T01:05:56.710Z,76.87
2023-02-12T01:08:26.393Z,77.00
2023-02-12T01:11:00.582Z,76.94
2023-02-12T01:13:31.685Z,76.89
2023-02-12T01:16:08.522Z,76.85
2023-02-12T01:18:40.445Z,76.73
2023-02-12T01:21:14.898Z,76.84
2023-02-12T01:23:45.725Z,76.79
2023-02-12T01:26:17.079Z,76.85
2023-02-12T01:28:49.696Z,76.88
2023-02-12T01:31:21.532Z,76.77
2023-02-12T01:33:54.659Z,76.80
2023-02-12T01:36:25.038Z,76.78
2023-02-12T01:38:54.161Z,76.71
2023-02-12T01:41:26.107Z,76.65
2023-02-12T01:44:10.922Z,76.80
2023-02-12T01:46:45.252Z,76.71
2023-02-12T01:49:20.862Z,76.65
2023-02-12T01:51:53.272Z,76.65
2023-02-12T01:54:26.019Z,76.67
2023-02-12T01:56:55.648Z,76.56
2023-02-12T01:59:24.824Z,76.68
2023-02-12T02:01:57.958Z,76.67
2023-02-12T02:04:29.496Z,76.63
2023-02-12T02:07:01.500Z,76.71
2023-02-12T02:09:31.741Z,76.66
2023-02-12T02:12:18.997Z,76.61
2023-02-12T02:14:51.554Z,76.58
2023-02-12T02:17:43.970Z,76.63
2023-02-12T02:20:37.747Z,76.67
2023-02-12T02:23:34.014Z,76.58
2023-02-12T02:26:22.719Z,76.68
2023-02-12T02:29:15.317Z,76.51
2023-02-12T02:31:47.673Z,76.54
2023-02-12T02:34:25.827Z,76.57
2023-02-12T02:37:01.789Z,76.57
2023-02-12T02:39:38.171Z,76.52
2023-02-12T02:42:14.344Z,76.52
2023-02-12T02:44:50.835Z,76.56
2023-02-12T02:47:29.012Z,76.50
2023-02-12T02:50:02.855Z,76.52
2023-02-12T02:52:36.772Z,76.48
2023-02-12T02:55:09.396Z,76.44
2023-02-12T02:57:45.778Z,76.53
2023-02-12T03:00:18.518Z,76.56
2023-02-12T03:02:55.582Z,76.56
2023-02-12T03:05:31.812Z,76.43
2023-02-12T03:08:07.351Z,76.39
2023-02-12T03:10:49.290Z,76.39
2023-02-12T03:13:24.130Z,76.34
2023-02-12T03:16:00.972Z,76.44
2023-02-12T03:18:33.787Z,76.30
2023-02-12T03:21:07.159Z,76.31
2023-02-12T03:23:41.123Z,76.42
2023-02-12T03:26:17.740Z,76.36
2023-02-12T03:28:47.392Z,76.43
2023-02-12T03:31:24.904Z,76.34
2023-02-12T03:34:08.470Z,76.34
2023-02-12T03:36:45.167Z,76.28
2023-02-12T03:39:23.487Z,76.27
2023-02-12T03:42:01.551Z,76.32
2023-02-12T03:44:44.881Z,76.33
2023-02-12T03:47:22.268Z,76.46
2023-02-12T03:50:01.154Z,76.35
2023-02-12T03:52:30.705Z,76.31
2023-02-12T03:55:00.630Z,76.36
2023-02-12T03:57:34.741Z,76.20
2023-02-12T04:00:09.816Z,76.28
2023-02-12T04:02:47.971Z,76.26
2023-02-12T04:05:22.768Z,76.21
2023-02-12T04:07:53.848Z,76.22
2023-02-12T04:10:29.331Z,76.26
2023-02-12T04:13:11.187Z,76.16
2023-02-12T04:16:05.438Z,76.21
2023-02-12T04:18:42.968Z,76.20
2023-02-12T04:21:20.942Z,76.10
2023-02-12T04:24:00.315Z,76.18
2023-02-12T04:26:41.506Z,76.24
2023-02-12T04:29:25.247Z,76.16
2023-02-12T04:32:01.057Z,76.20
2023-02-12T04:34:41.451Z,76.10
2023-02-12T04:37:18.093Z,76.04
2023-02-12T04:39:51.524Z,76.02
2023-02-12T04:42:20.806Z,75.99
2023-02-12T04:44:52.969Z,75.93
2023-02-12T04:47:22.030Z,75.97
2023-02-12T04:49:51.114Z,76.01
2023-02-12T04:52:20.901Z,75.99
2023-02-12T04:54:50.254Z,75.89
2023-02-12T04:57:19.162Z,75.94
2023-02-12T04:59:48.036Z,75.97
2023-02-12T05:02:20.306Z,75.94
2023-02-12T05:04:50.921Z,75.75
2023-02-12T05:07:20.106Z,75.89
2023-02-12T05:09:50.140Z,75.81
2023-02-12T05:12:18.801Z,75.73
2023-02-12T05:14:53.923Z,75.83
2023-02-12T05:17:24.136Z,75.77
2023-02-12T05:19:56.218Z,75.87
2023-02-12T05:22:25.260Z,75.96
2023-02-12T05:24:55.143Z,75.76
2023-02-12T05:27:24.763Z,75.77
2023-02-12T05:29:58.032Z,75.84
2023-02-12T05:32:30.276Z,75.77
2023-02-12T05:34:59.020Z,75.68
2023-02-12T05:37:30.906Z,75.78
2023-02-12T05:39:59.913Z,75.78
2023-02-12T05:42:31.681Z,75.79
2023-02-12T05:45:00.588Z,75.75
2023-02-12T05:47:29.784Z,75.75
2023-02-12T05:49:58.585Z,75.74
2023-02-12T05:52:28.083Z,75.79
2023-02-12T05:54:57.052Z,75.83
2023-02-12T05:57:32.213Z,75.82
2023-02-12T06:00:01.000Z,75.83
2023-02-12T06:02:30.020Z,75.78
2023-02-12T06:05:00.247Z,75.73
2023-02-12T06:07:31.926Z,75.70
2023-02-12T06:10:03.900Z,75.78
2023-02-12T06:12:36.350Z,75.66
2023-02-12T06:15:06.104Z,75.74
2023-02-12T06:17:36.017Z,75.76
2023-02-12T06:20:05.837Z,75.79
2023-02-12T06:22:34.632Z,75.81
2023-02-12T06:25:03.520Z,75.77
2023-02-12T06:27:32.512Z,75.77
2023-02-12T06:30:01.478Z,75.94
2023-02-12T06:32:30.195Z,75.77
2023-02-12T06:34:58.924Z,75.78
2023-02-12T06:37:29.984Z,75.80
2023-02-12T06:39:58.794Z,75.63
2023-02-12T06:42:28.846Z,75.64
2023-02-12T06:44:57.980Z,75.74
2023-02-12T06:47:28.397Z,75.67
2023-02-12T06:49:57.352Z,75.60
2023-02-12T06:52:29.747Z,75.66
2023-02-12T06:54:58.864Z,75.79
2023-02-12T06:57:32.612Z,75.70
2023-02-12T07:00:01.474Z,75.63
2023-02-12T07:02:33.169Z,75.66
2023-02-12T07:05:01.953Z,75.75
2023-02-12T07:07:30.792Z,75.85
2023-02-12T07:10:00.186Z,75.68
2023-02-12T07:12:35.013Z,75.83
2023-02-12T07:15:04.099Z,75.80
2023-02-12T07:17:33.373Z,75.91
2023-02-12T07:20:02.596Z,75.69
2023-02-12T07:22:31.276Z,75.65
2023-02-12T07:25:00.035Z,75.62
2023-02-12T07:27:30.629Z,75.53
2023-02-12T07:29:59.509Z,75.73
2023-02-12T07:32:28.484Z,75.76
2023-02-12T07:34:57.393Z,75.77
2023-02-12T07:37:34.450Z,75.96
2023-02-12T07:40:09.470Z,76.07
2023-02-12T07:42:38.476Z,75.92
2023-02-12T07:45:13.806Z,75.98
2023-02-12T07:47:44.598Z,75.98
2023-02-12T07:50:16.514Z,75.91
2023-02-12T07:52:49.253Z,75.87
2023-02-12T07:55:23.045Z,75.73
2023-02-12T07:57:51.922Z,75.37
2023-02-12T08:00:23.915Z,75.15
2023-02-12T08:02:55.389Z,75.15
2023-02-12T08:05:24.119Z,75.23
2023-02-12T08:07:58.151Z,75.47
2023-02-12T08:10:30.132Z,75.60
2023-02-12T08:13:02.719Z,75.72
2023-02-12T08:15:33.288Z,75.47
2023-02-12T08:18:02.303Z,75.61
2023-02-12T08:20:34.735Z,75.75
2023-02-12T08:23:05.972Z,75.58
2023-02-12T08:25:34.696Z,75.75
2023-02-12T08:28:09.191Z,75.60
2023-02-12T08:30:38.125Z,75.56
2023-02-12T08:33:10.657Z,75.76
2023-02-12T08:35:39.491Z,75.77
2023-02-12T08:38:08.975Z,75.42
2023-02-12T08:40:37.780Z,75.38
2023-02-12T08:43:08.731Z,75.57
2023-02-12T08:45:37.728Z,75.74
2023-02-12T08:48:09.597Z,75.74
2023-02-12T08:50:38.456Z,75.46
2023-02-12T08:53:07.241Z,75.38
2023-02-12T08:55:36.223Z,75.52
2023-02-12T08:58:09.273Z,75.70
2023-02-12T09:00:40.436Z,76.13
2023-02-12T09:03:14.158Z,76.57
2023-02-12T09:05:43.953Z,76.37
2023-02-12T09:08:12.844Z,76.71
2023-02-12T09:10:42.987Z,76.93
2023-02-12T09:13:13.844Z,76.38
2023-02-12T09:15:45.777Z,75.58
2023-02-12T09:18:17.246Z,74.98
2023-02-12T09:20:46.286Z,75.10
2023-02-12T09:23:15.669Z,75.34
2023-02-12T09:25:45.947Z,75.31
2023-02-12T09:28:15.447Z,75.03
2023-02-12T09:30:44.251Z,74.97
2023-02-12T09:33:13.071Z,74.88
2023-02-12T09:35:42.835Z,75.12
2023-02-12T09:38:11.659Z,75.01
2023-02-12T09:40:52.100Z,74.47
2023-02-12T09:43:33.800Z,74.55
2023-02-12T09:46:12.436Z,74.83
2023-02-12T09:48:54.661Z,75.21
2023-02-12T09:51:26.209Z,75.92
2023-02-12T09:54:02.999Z,75.57
2023-02-12T09:56:34.521Z,75.71
2023-02-12T09:59:06.554Z,75.65
2023-02-12T10:01:38.480Z,75.40
2023-02-12T10:04:07.409Z,75.42
2023-02-12T10:06:45.420Z,75.46
2023-02-12T10:09:32.340Z,75.36
2023-02-12T10:12:12.205Z,74.86
2023-02-12T10:15:09.953Z,74.37
2023-02-12T10:17:44.593Z,74.18
2023-02-12T10:20:41.505Z,74.40
2023-02-12T10:23:34.299Z,72.87
2023-02-12T10:26:10.445Z,73.28
2023-02-12T10:28:42.063Z,73.39
2023-02-12T10:31:17.376Z,72.51
2023-02-12T10:33:48.727Z,72.68
2023-02-12T10:36:29.193Z,72.07
2023-02-12T10:39:02.366Z,70.77
2023-02-12T10:41:32.702Z,71.44
2023-02-12T10:44:02.003Z,71.93
2023-02-12T10:46:32.571Z,72.11
2023-02-12T10:49:03.791Z,72.60
2023-02-12T10:51:46.403Z,71.48
2023-02-12T10:54:36.657Z,70.89
2023-02-12T10:57:17.375Z,71.28
2023-02-12T10:59:52.694Z,71.55
2023-02-12T11:02:27.538Z,71.34
2023-02-12T11:04:59.085Z,72.08
2023-02-12T11:07:48.156Z,72.62
2023-02-12T11:10:27.484Z,72.86
2023-02-12T11:12:58.079Z,72.86
2023-02-12T11:15:31.300Z,73.13
2023-02-12T11:18:04.509Z,72.72
2023-02-12T11:20:42.155Z,72.73
2023-02-12T11:23:26.311Z,73.47
2023-02-12T11:26:00.951Z,73.34
2023-02-12T11:28:31.298Z,73.32
2023-02-12T11:31:03.085Z,72.83
2023-02-12T11:33:34.496Z,72.76
2023-02-12T11:36:13.938Z,72.80
2023-02-12T11:38:54.049Z,73.06
2023-02-12T11:41:28.509Z,73.01
2023-02-12T11:43:57.804Z,72.75
2023-02-12T11:46:28.814Z,72.43
2023-02-12T11:49:00.196Z,72.00
2023-02-12T11:51:31.859Z,72.21
2023-02-12T11:54:03.571Z,72.58
2023-02-12T11:56:47.938Z,72.06
2023-02-12T11:59:32.042Z,71.92
2023-02-12T12:02:06.574Z,72.51
2023-02-12T12:04:48.745Z,72.59
2023-02-12T12:07:22.976Z,72.73
2023-02-12T12:09:59.266Z,72.65
2023-02-12T12:12:37.858Z,72.86
2023-02-12T12:15:34.858Z,72.73
2023-02-12T12:18:35.433Z,72.98
2023-02-12T12:21:14.230Z,72.85
2023-02-12T12:23:50.002Z,72.87
2023-02-12T12:26:24.786Z,72.57
2023-02-12T12:29:01.529Z,72.64
2023-02-12T12:31:36.379Z,72.59
2023-02-12T12:34:10.363Z,72.74
2023-02-12T12:37:07.805Z,72.76
2023-02-12T12:39:47.888Z,72.70
2023-02-12T12:42:53.438Z,72.71
2023-02-12T12:45:38.785Z,72.56
2023-02-12T12:48:22.317Z,72.11
2023-02-12T12:51:09.395Z,71.64
2023-02-12T12:53:52.128Z,71.94
2023-02-12T12:56:43.774Z,71.85
2023-02-12T12:59:45.916Z,72.03
2023-02-12T13:02:54.431Z,71.78
2023-02-12T13:06:03.213Z,71.98
2023-02-12T13:08:46.947Z,72.24
2023-02-12T13:11:29.902Z,72.25
2023-02-12T13:14:08.902Z,72.05
2023-02-12T13:16:44.703Z,72.16
2023-02-12T13:19:24.667Z,72.26
2023-02-12T13:22:01.743Z,72.34
2023-02-12T13:24:38.963Z,72.41
2023-02-12T13:27:12.901Z,72.45
2023-02-12T13:29:50.241Z,72.41
2023-02-12T13:32:25.953Z,72.32
2023-02-12T13:34:57.240Z,72.24
2023-02-12T13:37:36.661Z,72.02
2023-02-12T13:40:08.160Z,72.21
2023-02-12T13:42:47.998Z,72.24
2023-02-12T13:45:32.322Z,71.90
2023-02-12T13:48:18.563Z,72.15
2023-02-12T13:51:01.042Z,72.22
2023-02-12T13:53:45.596Z,72.16
2023-02-12T13:56:35.568Z,72.13
2023-02-12T13:59:27.908Z,72.22
2023-02-12T14:01:58.235Z,72.19
2023-02-12T14:04:32.332Z,72.04
2023-02-12T14:07:09.471Z,72.05
2023-02-12T14:09:43.851Z,72.13
2023-02-12T14:12:31.584Z,72.30
2023-02-12T14:15:08.053Z,72.18
2023-02-12T14:17:55.110Z,72.22
2023-02-12T14:20:29.581Z,72.21
2023-02-12T14:23:03.110Z,72.24
2023-02-12T14:25:39.169Z,72.30
2023-02-12T14:28:25.105Z,72.32
2023-02-12T14:31:35.962Z,72.20
2023-02-12T14:34:51.400Z,72.17
2023-02-12T14:37:37.756Z,72.11
2023-02-12T14:40:43.175Z,72.22
2023-02-12T14:43:32.359Z,72.11
2023-02-12T14:46:40.177Z,72.20
2023-02-12T14:49:20.500Z,72.05
2023-02-12T14:51:55.311Z,72.13
2023-02-12T14:54:30.865Z,72.24
2023-02-12T14:57:03.350Z,72.22
2023-02-12T14:59:40.024Z,72.14
2023-02-12T15:02:18.871Z,72.08
2023-02-12T15:04:54.294Z,72.01
2023-02-12T15:07:30.638Z,72.09
2023-02-12T15:10:09.478Z,72.27
2023-02-12T15:12:43.569Z,72.20
2023-02-12T15:15:21.663Z,72.14
2023-02-12T15:17:58.599Z,72.14
2023-02-12T15:20:35.045Z,72.14
2023-02-12T15:23:34.046Z,72.05
2023-02-12T15:26:12.057Z,72.02
2023-02-12T15:28:43.450Z,72.02
2023-02-12T15:31:20.484Z,71.95
2023-02-12T15:33:55.210Z,72.10
2023-02-12T15:36:25.836Z,72.07
2023-02-12T15:38:57.302Z,72.20
2023-02-12T15:41:36.127Z,71.96
2023-02-12T15:44:20.418Z,72.04
2023-02-12T15:47:01.010Z,72.12
2023-02-12T15:49:35.972Z,72.07
2023-02-12T15:52:09.798Z,72.12
2023-02-12T15:54:39.197Z,71.93
2023-02-12T15:57:13.047Z,72.09
2023-02-12T15:59:46.232Z,72.19
2023-02-12T16:02:22.893Z,72.28
2023-02-12T16:04:55.742Z,72.17
2023-02-12T16:07:26.653Z,72.28
2023-02-12T16:09:56.379Z,72.37
2023-02-12T16:12:34.078Z,72.36
2023-02-12T16:15:03.224Z,72.15
2023-02-12T16:17:36.311Z,72.16
2023-02-12T16:20:21.271Z,72.14
2023-02-12T16:22:51.272Z,72.20
2023-02-12T16:25:24.617Z,72.15
2023-02-12T16:27:59.347Z,72.06
2023-02-12T16:30:30.969Z,71.92
2023-02-12T16:33:00.992Z,71.92
2023-02-12T16:35:34.250Z,72.15
2023-02-12T16:38:26.520Z,72.31
2023-02-12T16:41:21.033Z,72.53
2023-02-12T16:43:52.134Z,72.44
2023-02-12T16:46:21.834Z,72.51
2023-02-12T16:48:52.766Z,72.39
2023-02-12T16:51:24.963Z,72.49
2023-02-12T16:53:56.858Z,72.65
2023-02-12T16:56:28.924Z,72.42
2023-02-12T16:59:02.595Z,72.47
2023-02-12T17:01:36.493Z,72.43
2023-02-12T17:04:08.367Z,72.41
2023-02-12T17:06:37.051Z,72.51
2023-02-12T17:09:06.016Z,72.50
2023-02-12T17:11:37.560Z,72.41
2023-02-12T17:14:16.214Z,72.16
2023-02-12T17:16:46.744Z,72.21
2023-02-12T17:19:16.750Z,72.36
2023-02-12T17:21:50.547Z,72.52
2023-02-12T17:24:23.293Z,72.64
2023-02-12T17:26:53.141Z,72.57
2023-02-12T17:29:24.525Z,72.47
2023-02-12T17:31:57.102Z,72.44
2023-02-12T17:34:26.664Z,72.20
2023-02-12T17:36:56.475Z,72.18
2023-02-12T17:39:25.118Z,72.11
2023-02-12T17:41:54.170Z,72.19
2023-02-12T17:44:25.000Z,72.34
2023-02-12T17:46:54.611Z,72.35
2023-02-12T17:49:23.319Z,72.08
2023-02-12T17:51:52.006Z,71.99
2023-02-12T17:54:20.786Z,71.94
2023-02-12T17:56:49.676Z,71.97
2023-02-12T17:59:19.022Z,72.00
2023-02-12T18:01:48.118Z,72.31
2023-02-12T18:04:19.276Z,72.52
2023-02-12T18:06:48.435Z,72.76
2023-02-12T18:09:17.279Z,72.76
2023-02-12T18:11:49.365Z,72.79
2023-02-12T18:14:18.164Z,72.86
2023-02-12T18:16:47.569Z,72.96
2023-02-12T18:19:17.057Z,73.08
2023-02-12T18:21:47.168Z,73.04
2023-02-12T18:24:18.431Z,73.03
2023-02-12T18:26:48.398Z,72.98
2023-02-12T18:29:17.972Z,73.15
2023-02-12T18:31:46.989Z,73.07
2023-02-12T18:34:16.075Z,73.26
2023-02-12T18:36:46.885Z,73.39
2023-02-12T18:39:31.060Z,73.46
2023-02-12T18:42:11.140Z,73.40
2023-02-12T18:45:00.585Z,73.56
2023-02-12T18:47:32.833Z,73.50
2023-02-12T18:50:01.924Z,73.54
2023-02-12T18:52:37.277Z,73.51
2023-02-12T18:55:31.276Z,73.48
2023-02-12T18:58:17.716Z,73.34
2023-02-12T19:00:53.048Z,73.40
2023-02-12T19:03:36.551Z,73.42
2023-02-12T19:06:15.641Z,73.52
2023-02-12T19:08:52.357Z,73.59
2023-02-12T19:11:26.582Z,73.69
2023-02-12T19:14:00.385Z,73.74
2023-02-12T19:16:40.101Z,73.65
2023-02-12T19:19:20.556Z,73.74
2023-02-12T19:22:06.038Z,73.67
2023-02-12T19:25:11.620Z,73.83
2023-02-12T19:28:13.253Z,73.66
2023-02-12T19:31:02.034Z,73.68
2023-02-12T19:33:46.449Z,73.71
2023-02-12T19:36:35.193Z,73.61
2023-02-12T19:39:08.625Z,73.83
2023-02-12T19:41:48.196Z,73.81
2023-02-12T19:44:47.942Z,73.76
2023-02-12T19:47:24.175Z,73.83
2023-02-12T19:50:42.864Z,73.90
2023-02-12T19:53:32.991Z,73.82
2023-02-12T19:56:42.164Z,73.83
2023-02-12T19:59:50.332Z,73.82
2023-02-12T20:02:31.124Z,73.76
2023-02-12T20:05:24.308Z,73.85
2023-02-12T20:08:01.363Z,73.80
2023-02-12T20:11:13.453Z,73.87
2023-02-12T20:13:57.523Z,74.02
2023-02-12T20:16:48.813Z,74.06
2023-02-12T20:19:31.753Z,74.08
2023-02-12T20:22:17.730Z,74.17
2023-02-12T20:25:02.030Z,74.20
2023-02-12T20:27:34.057Z,74.24
2023-02-12T20:30:18.183Z,74.19
2023-02-12T20:32:55.503Z,74.09
2023-02-12T20:38:34.255Z,74.18
2023-02-12T20:41:26.323Z,74.14
2023-02-12T20:44:07.147Z,74.24
2023-02-12T20:46:57.248Z,74.27
2023-02-12T20:49:39.353Z,74.31
2023-02-12T20:52:41.342Z,74.32
2023-02-12T20:55:26.318Z,74.44
2023-02-12T20:58:12.948Z,74.37
2023-02-12T21:00:52.766Z,74.45
2023-02-12T21:03:28.129Z,74.38
2023-02-12T21:05:57.297Z,74.42
2023-02-12T21:08:26.458Z,74.38
2023-02-12T21:11:03.760Z,74.48
2023-02-12T21:13:33.222Z,74.45
2023-02-12T21:16:08.719Z,74.60
2023-02-12T21:18:37.962Z,74.47
2023-02-12T21:21:11.980Z,74.57
2023-02-12T21:23:43.933Z,74.62
2023-02-12T21:26:14.679Z,74.58
2023-02-12T21:28:45.458Z,74.60
2023-02-12T21:31:18.488Z,74.67
2023-02-12T21:33:52.203Z,74.60
2023-02-12T21:36:25.853Z,74.58
2023-02-12T21:38:56.951Z,74.67
2023-02-12T21:41:27.870Z,74.67
2023-02-12T21:43:59.681Z,74.63
2023-02-12T21:46:30.281Z,74.75
2023-02-12T21:48:59.510Z,74.76
2023-02-12T21:51:31.793Z,74.80
2023-02-12T21:54:04.032Z,74.70
2023-02-12T21:56:34.454Z,74.78
2023-02-12T21:59:03.855Z,74.83
2023-02-12T22:01:39.111Z,74.90
2023-02-12T22:04:09.689Z,74.87
2023-02-12T22:06:39.955Z,74.86
2023-02-12T22:09:11.706Z,74.85
2023-02-12T22:11:41.329Z,74.85
2023-02-12T22:14:16.861Z,74.86
2023-02-12T22:16:50.628Z,74.95
2023-02-12T22:19:20.285Z,74.93
2023-02-12T22:21:52.069Z,75.00
2023-02-12T22:24:24.137Z,75.00
2023-02-12T22:26:55.134Z,75.06
2023-02-12T22:29:24.082Z,75.12
2023-02-12T22:31:53.483Z,75.19
2023-02-12T22:34:23.132Z,75.09
2023-02-12T22:36:52.383Z,75.06
2023-02-12T22:39:22.463Z,75.18
2023-02-12T22:41:51.326Z,75.32
2023-02-12T22:44:21.405Z,75.32
2023-02-12T22:46:52.184Z,75.26
2023-02-12T22:49:21.440Z,75.14
2023-02-12T22:51:50.181Z,75.20
2023-02-12T22:54:20.480Z,75.35
2023-02-12T22:56:52.319Z,75.32
2023-02-12T22:59:21.159Z,75.43
2023-02-12T23:01:50.296Z,75.35
2023-02-12T23:04:19.119Z,75.43
2023-02-12T23:06:48.188Z,75.50
2023-02-12T23:09:18.739Z,75.34
2023-02-12T23:11:48.064Z,75.43
2023-02-12T23:14:17.190Z,75.49
2023-02-12T23:16:47.545Z,75.51
2023-02-12T23:19:18.740Z,75.60
2023-02-12T23:21:47.609Z,75.47
2023-02-12T23:24:16.551Z,75.65
2023-02-12T23:26:47.017Z,75.53
2023-02-12T23:29:15.674Z,75.61
2023-02-12T23:31:47.015Z,75.59
2023-02-12T23:34:18.435Z,75.72
2023-02-12T23:36:47.114Z,75.66
2023-02-12T23:39:16.247Z,75.69
2023-02-12T23:41:45.391Z,75.75
2023-02-12T23:44:14.232Z,75.73
2023-02-12T23:46:46.914Z,75.80
2023-02-12T23:49:15.594Z,75.67
2023-02-12T23:51:45.738Z,75.79
2023-02-12T23:54:16.037Z,75.78
2023-02-12T23:56:47.270Z,75.84
2023-02-12T23:59:16.043Z,75.84
